Time;durP1;ratioP1;P1;durP2;ratioP2;P2;SDS_P1;SDS_P2;PMS_P1;PMS_P2;Temp;Humidity;BMP_temperature;BMP_pressure;BME280_temperature;BME280_humidity;BME280_pressure;Samples;Min_cycle;Max_cycle;Signal;HPM_P1;HPM_P2
2022/06/14 00:00:55;;;;;;;;;;;;;;;20.82;100.00;99797.19;5092820;28;19916;-68
2022/06/14 00:03:29;;;;;;;;;;;;;;;19.47;100.00;99782.66;5074933;28;19937;-70
2022/06/14 00:05:56;;;;;;;;;;;;;;;19.44;100.00;99782.84;5092748;28;19912;-69
2022/06/14 00:08:22;;;;;;;;;;;;;;;19.34;100.00;99784.41;5092843;28;19912;-70
2022/06/14 00:10:48;;;;;;;;;;;;;;;19.33;100.00;99780.19;5074060;28;20405;-69
2022/06/14 00:13:14;;;;;;;;;;;;;;;19.14;100.00;99772.81;5074031;28;19923;-70
2022/06/14 00:15:39;;;;;;;;;;;;;;;19.36;100.00;99772.22;5092225;28;20006;-69
2022/06/14 00:18:05;;;;;;;;;;;;;;;19.10;100.00;99781.66;5092353;28;20021;-68
2022/06/14 00:20:30;;;;;;;;;;;;;;;19.13;100.00;99775.50;5092522;28;19912;-69
2022/06/14 00:22:56;;;;;;;;;;;;;;;19.07;100.00;99775.91;5091454;28;19916;-70
2022/06/14 00:25:26;;;;;;;;;;;;;;;19.27;100.00;99775.41;5092542;28;19916;-70
2022/06/14 00:27:52;;;;;;;;;;;;;;;18.98;100.00;99774.75;5074042;28;19965;-69
2022/06/14 00:30:17;;;;;;;;;;;;;;;19.04;100.00;99779.50;5074183;28;19912;-69
2022/06/14 00:32:42;;;;;;;;;;;;;;;19.25;100.00;99783.25;5092388;28;20425;-69
2022/06/14 00:35:08;;;;;;;;;;;;;;;19.09;100.00;99782.59;5092155;28;19912;-69
2022/06/14 00:37:33;;;;;;;;;;;;;;;19.00;100.00;99778.88;5092501;28;19916;-68
2022/06/14 00:39:58;;;;;;;;;;;;;;;19.27;100.00;99789.13;5073975;28;19923;-69
2022/06/14 00:42:24;;;;;;;;;;;;;;;19.04;100.00;99790.63;5092204;28;19912;-69
2022/06/14 00:45:08;;;;;;;;;;;;;;;18.94;100.00;99784.44;5092046;28;20419;-69
2022/06/14 00:47:37;;;;;;;;;;;;;;;19.21;100.00;99788.69;5073790;28;19965;-69
2022/06/14 00:50:04;;;;;;;;;;;;;;;18.99;100.00;99789.28;5092167;28;20015;-69
2022/06/14 00:52:39;;;;;;;;;;;;;;;18.82;100.00;99787.81;5073915;28;19965;-69
2022/06/14 00:55:07;;;;;;;;;;;;;;;18.73;100.00;99779.84;5091854;28;20003;-70
2022/06/14 00:57:35;;;;;;;;;;;;;;;18.91;100.00;99784.66;5092010;28;19935;-69
2022/06/14 01:00:07;;;;;;;;;;;;;;;18.62;100.00;99785.69;5091587;28;19970;-69
2022/06/14 01:02:35;;;;;;;;;;;;;;;18.57;100.00;99782.59;5073379;28;20351;-69
2022/06/14 01:05:03;;;;;;;;;;;;;;;18.63;100.00;99773.63;5091905;28;19919;-69
2022/06/14 01:07:29;;;;;;;;;;;;;;;18.42;100.00;99770.63;5091679;28;19912;-70
2022/06/14 01:09:56;;;;;;;;;;;;;;;18.47;100.00;99778.94;5091587;28;19939;-69
2022/06/14 01:12:26;;;;;;;;;;;;;;;18.38;100.00;99770.94;5073158;28;19912;-69
2022/06/14 01:14:58;;;;;;;;;;;;;;;18.39;100.00;99773.41;5073464;28;19912;-69
2022/06/14 01:17:23;;;;;;;;;;;;;;;18.15;100.00;99772.38;5091517;28;19923;-69
2022/06/14 01:19:49;;;;;;;;;;;;;;;18.16;100.00;99768.91;5091648;28;19919;-69
2022/06/14 01:22:14;;;;;;;;;;;;;;;18.18;100.00;99764.47;5091135;28;20351;-69
2022/06/14 01:24:41;;;;;;;;;;;;;;;18.36;100.00;99763.28;5091921;28;19923;-69
2022/06/14 01:27:09;;;;;;;;;;;;;;;18.16;100.00;99768.91;5073095;28;19919;-69
2022/06/14 01:29:35;;;;;;;;;;;;;;;18.36;100.00;99759.91;5091323;28;19919;-69
2022/06/14 01:32:02;;;;;;;;;;;;;;;18.26;100.00;99769.97;5091253;28;20022;-70
2022/06/14 01:34:30;;;;;;;;;;;;;;;18.01;100.00;99755.22;5091048;28;19943;-69
2022/06/14 01:36:57;;;;;;;;;;;;;;;18.01;100.00;99759.53;5072885;28;19994;-69
2022/06/14 01:39:22;;;;;;;;;;;;;;;18.11;100.00;99756.31;5091107;28;19912;-69
2022/06/14 01:42:03;;;;;;;;;;;;;;;17.94;100.00;99750.56;5091240;28;19918;-69
2022/06/14 01:44:58;;;;;;;;;;;;;;;18.20;100.00;99754.91;5073464;28;19994;-69
2022/06/14 01:47:26;;;;;;;;;;;;;;;17.81;100.00;99750.47;5072899;28;20271;-70
2022/06/14 01:52:55;;;;;;;;;;;;;;;18.11;100.00;99755.47;5069385;28;19912;-69
2022/06/14 01:55:23;;;;;;;;;;;;;;;17.80;100.00;99753.97;5090935;28;19966;-69
2022/06/14 01:57:57;;;;;;;;;;;;;;;17.74;100.00;99762.06;5072550;28;19908;-69
2022/06/14 02:00:26;;;;;;;;;;;;;;;17.84;100.00;99752.88;5090877;28;20002;-70
2022/06/14 02:05:54;;;;;;;;;;;;;;;17.91;100.00;99758.44;5090895;28;19969;-70
2022/06/14 02:08:22;;;;;;;;;;;;;;;17.67;100.00;99765.13;5072227;28;19998;-69
2022/06/14 02:10:48;;;;;;;;;;;;;;;17.59;100.00;99757.84;5072844;28;19919;-69
2022/06/14 02:13:19;;;;;;;;;;;;;;;17.95;100.00;99757.34;5091094;28;19920;-69
2022/06/14 02:15:52;;;;;;;;;;;;;;;18.02;100.00;99767.19;5072773;28;19912;-69
2022/06/14 02:18:26;;;;;;;;;;;;;;;17.84;100.00;99767.47;5090715;28;20006;-68
2022/06/14 02:20:56;;;;;;;;;;;;;;;17.97;100.00;99765.78;5090959;28;19919;-68
2022/06/14 02:23:23;;;;;;;;;;;;;;;17.81;100.00;99770.22;5090788;28;20358;-69
2022/06/14 02:25:57;;;;;;;;;;;;;;;17.90;100.00;99764.53;5090928;28;19916;-71
2022/06/14 02:28:26;;;;;;;;;;;;;;;17.65;100.00;99761.81;5090828;28;19957;-69
2022/06/14 02:30:57;;;;;;;;;;;;;;;17.99;100.00;99762.22;5072372;28;20056;-70
2022/06/14 02:33:25;;;;;;;;;;;;;;;18.00;100.00;99765.63;5090703;28;19912;-69
2022/06/14 02:35:57;;;;;;;;;;;;;;;17.90;100.00;99765.38;5072715;28;19912;-69
2022/06/14 02:38:32;;;;;;;;;;;;;;;17.88;100.00;99763.78;5072622;28;19999;-68
2022/06/14 02:41:20;;;;;;;;;;;;;;;17.70;100.00;99760.59;5072890;28;19919;-69
2022/06/14 02:43:45;;;;;;;;;;;;;;;17.94;100.00;99766.84;5072608;28;19908;-69
2022/06/14 02:46:16;;;;;;;;;;;;;;;17.67;100.00;99770.25;5093326;28;20354;-69
2022/06/14 02:48:55;;;;;;;;;;;;;;;17.89;100.00;99773.16;5093820;28;19916;-70
2022/06/14 02:51:23;;;;;;;;;;;;;;;17.67;100.00;99771.06;5094640;28;19924;-69
2022/06/14 02:53:51;;;;;;;;;;;;;;;17.92;100.00;99780.69;5075870;28;19912;-69
2022/06/14 02:56:30;;;;;;;;;;;;;;;17.79;100.00;99782.34;5094198;28;20007;-69
2022/06/14 02:59:24;;;;;;;;;;;;;;;17.86;100.00;99781.06;5094038;28;20487;-71
2022/06/14 03:01:59;;;;;;;;;;;;;;;17.66;100.00;99778.88;5076389;28;19916;-69
2022/06/14 03:04:31;;;;;;;;;;;;;;;17.44;100.00;99776.72;5093997;28;19966;-69
2022/06/14 03:06:59;;;;;;;;;;;;;;;17.47;100.00;99779.09;5094016;28;20019;-69
2022/06/14 03:09:26;;;;;;;;;;;;;;;17.67;100.00;99775.41;5094034;28;20023;-69
2022/06/14 03:12:05;;;;;;;;;;;;;;;17.74;100.00;99780.06;5093667;28;19912;-69
2022/06/14 03:14:30;;;;;;;;;;;;;;;17.76;100.00;99777.41;5093900;28;19919;-68
2022/06/14 03:16:55;;;;;;;;;;;;;;;17.73;100.00;99780.13;5093563;28;20474;-70
2022/06/14 03:19:39;;;;;;;;;;;;;;;17.85;100.00;99776.81;5093801;28;19919;-69
2022/06/14 03:22:07;;;;;;;;;;;;;;;17.70;100.00;99776.03;5093675;28;19955;-69
2022/06/14 03:24:52;;;;;;;;;;;;;;;17.63;100.00;99779.06;5075585;28;19912;-70
2022/06/14 03:27:28;;;;;;;;;;;;;;;17.74;100.00;99774.09;5074018;28;20360;-70
2022/06/14 03:30:03;;;;;;;;;;;;;;;17.80;100.00;99778.88;5093458;28;19912;-69
2022/06/14 03:32:39;;;;;;;;;;;;;;;17.82;100.00;99783.00;5093497;28;19922;-69
2022/06/14 03:35:10;;;;;;;;;;;;;;;17.90;100.00;99779.97;5093528;28;19916;-73
2022/06/14 03:37:35;;;;;;;;;;;;;;;18.00;100.00;99787.03;5076319;28;19912;-73
2022/06/14 03:40:06;;;;;;;;;;;;;;;18.03;100.00;99784.25;5074765;28;19931;-73
2022/06/14 03:42:32;;;;;;;;;;;;;;;17.97;100.00;99781.22;5093357;28;19908;-74
2022/06/14 03:44:57;;;;;;;;;;;;;;;18.05;100.00;99785.00;5093787;28;20015;-73
2022/06/14 03:47:27;;;;;;;;;;;;;;;18.17;100.00;99797.09;5091283;28;19915;-73
2022/06/14 03:50:07;;;;;;;;;;;;;;;18.08;100.00;99789.13;5073712;28;19919;-73
2022/06/14 03:52:43;;;;;;;;;;;;;;;17.94;100.00;99786.56;5055517;28;19938;-72
2022/06/14 03:55:30;;;;;;;;;;;;;;;18.25;100.00;99788.91;5073820;28;20407;-73
2022/06/14 03:58:15;;;;;;;;;;;;;;;18.21;100.00;99792.59;5072619;28;19920;-69
2022/06/14 04:00:40;;;;;;;;;;;;;;;18.09;100.00;99788.19;5072095;28;19951;-72
2022/06/14 04:03:24;;;;;;;;;;;;;;;18.83;100.00;99786.91;5072824;28;19963;-70
2022/06/14 04:06:02;;;;;;;;;;;;;;;18.54;100.00;99789.69;5072653;28;19919;-70
2022/06/14 04:08:30;;;;;;;;;;;;;;;18.43;100.00;99802.41;5054584;28;19912;-69
2022/06/14 04:10:58;;;;;;;;;;;;;;;18.34;100.00;99792.66;5054994;28;20290;-69
2022/06/14 04:13:39;;;;;;;;;;;;;;;18.65;100.00;99785.50;5088460;28;19923;-71
2022/06/14 04:16:11;;;;;;;;;;;;;;;18.76;100.00;99795.94;5073085;28;19970;-70
2022/06/14 04:18:38;;;;;;;;;;;;;;;18.92;100.00;99798.34;5054976;28;19974;-70
2022/06/14 04:21:23;;;;;;;;;;;;;;;18.95;100.00;99795.56;5054681;28;19999;-69
2022/06/14 04:23:58;;;;;;;;;;;;;;;18.85;100.00;99789.38;5054235;28;19912;-70
2022/06/14 04:26:42;;;;;;;;;;;;;;;18.78;100.00;99796.66;5054638;28;19912;-71
2022/06/14 04:29:16;;;;;;;;;;;;;;;18.90;100.00;99800.19;5072527;28;20429;-71
2022/06/14 04:31:44;;;;;;;;;;;;;;;19.00;100.00;99809.81;5072465;28;20275;-71
2022/06/14 04:34:42;;;;;;;;;;;;;;;19.15;100.00;99813.13;5054561;28;20388;-70
2022/06/14 04:37:11;;;;;;;;;;;;;;;19.27;100.00;99814.06;5027501;28;19919;-69
2022/06/14 04:39:42;;;;;;;;;;;;;;;19.44;100.00;99819.78;5072916;28;19966;-69
2022/06/14 04:42:11;;;;;;;;;;;;;;;19.97;100.00;99817.88;5078188;28;20004;-68
2022/06/14 04:44:40;;;;;;;;;;;;;;;19.85;100.00;99820.38;5080015;28;19927;-68
2022/06/14 04:47:18;;;;;;;;;;;;;;;20.11;100.00;99828.91;5071159;28;19923;-68
2022/06/14 04:49:50;;;;;;;;;;;;;;;20.21;100.00;99831.72;5053762;28;19919;-70
2022/06/14 04:52:23;;;;;;;;;;;;;;;20.33;100.00;99836.84;5070161;28;20382;-68
2022/06/14 04:54:48;;;;;;;;;;;;;;;20.72;100.00;99846.94;5071759;28;19988;-69
2022/06/14 04:57:20;;;;;;;;;;;;;;;20.78;100.00;99850.81;5071513;28;19973;-69
2022/06/14 04:59:52;;;;;;;;;;;;;;;20.66;100.00;99846.53;5071480;28;20315;-69
2022/06/14 05:02:21;;;;;;;;;;;;;;;21.27;100.00;99853.31;5071491;28;19920;-68
2022/06/14 05:04:58;;;;;;;;;;;;;;;21.23;100.00;99859.63;5052906;28;19916;-68
2022/06/14 05:07:44;;;;;;;;;;;;;;;21.50;100.00;99849.81;5070652;28;19913;-70
2022/06/14 05:10:09;;;;;;;;;;;;;;;21.59;100.00;99854.28;5070997;28;19912;-69
2022/06/14 05:12:48;;;;;;;;;;;;;;;21.92;100.00;99856.13;5053173;28;20353;-69
2022/06/14 05:15:19;;;;;;;;;;;;;;;21.89;100.00;99864.16;5071081;28;20014;-70
2022/06/14 05:17:50;;;;;;;;;;;;;;;22.19;100.00;99870.38;5070566;28;19919;-70
2022/06/14 05:20:21;;;;;;;;;;;;;;;22.04;100.00;99868.16;5071148;28;20421;-69
2022/06/14 05:22:47;;;;;;;;;;;;;;;21.90;100.00;99873.56;5071273;28;19912;-69
2022/06/14 05:25:13;;;;;;;;;;;;;;;22.47;100.00;99876.81;5071128;28;20313;-69
2022/06/14 05:27:43;;;;;;;;;;;;;;;22.59;100.00;99878.47;5053285;28;19912;-69
2022/06/14 05:30:27;;;;;;;;;;;;;;;22.57;100.00;99882.97;5070876;28;19994;-69
2022/06/14 05:32:56;;;;;;;;;;;;;;;22.54;100.00;99882.34;5071600;28;20432;-69
2022/06/14 05:35:30;;;;;;;;;;;;;;;22.74;100.00;99884.22;5052877;28;19999;-69
2022/06/14 05:38:00;;;;;;;;;;;;;;;22.86;100.00;99888.41;5053110;28;19962;-69
2022/06/14 05:40:38;;;;;;;;;;;;;;;22.92;100.00;99886.16;5070982;28;19920;-69
2022/06/14 05:43:14;;;;;;;;;;;;;;;23.02;100.00;99894.00;5070807;28;19995;-69
2022/06/14 05:45:42;;;;;;;;;;;;;;;23.21;100.00;99886.41;5070934;28;19912;-69
2022/06/14 05:48:09;;;;;;;;;;;;;;;23.65;100.00;99886.16;5052784;28;20379;-69
2022/06/14 05:50:39;;;;;;;;;;;;;;;23.76;100.00;99883.53;5070890;28;19959;-69
2022/06/14 05:53:12;;;;;;;;;;;;;;;23.95;100.00;99891.41;5052605;28;19966;-70
2022/06/14 05:55:41;;;;;;;;;;;;;;;24.13;100.00;99894.25;5052892;28;19964;-69
2022/06/14 05:58:13;;;;;;;;;;;;;;;24.41;100.00;99897.88;5052719;28;19913;-70
2022/06/14 06:00:44;;;;;;;;;;;;;;;24.25;100.00;99905.34;5070842;28;19913;-70
2022/06/14 06:03:21;;;;;;;;;;;;;;;24.70;100.00;99902.19;5071408;28;19912;-69
2022/06/14 06:06:05;;;;;;;;;;;;;;;24.27;100.00;99895.66;5070456;28;20350;-70
2022/06/14 06:08:35;;;;;;;;;;;;;;;24.43;100.00;99891.63;5070575;28;19912;-71
2022/06/14 06:11:05;;;;;;;;;;;;;;;24.71;100.00;99898.66;5070911;28;20049;-70
2022/06/14 06:13:33;;;;;;;;;;;;;;;25.02;100.00;99902.00;5070406;28;19917;-70
2022/06/14 06:16:03;;;;;;;;;;;;;;;25.05;100.00;99898.31;5070322;28;19912;-70
2022/06/14 06:18:35;;;;;;;;;;;;;;;25.29;100.00;99899.56;5070663;28;19974;-70
2022/06/14 06:21:10;;;;;;;;;;;;;;;25.85;100.00;99902.19;5073268;28;19916;-69
2022/06/14 06:23:45;;;;;;;;;;;;;;;25.70;100.00;99907.06;5074788;28;19913;-70
2022/06/14 06:26:12;;;;;;;;;;;;;;;25.78;100.00;99907.19;5074201;28;19920;-70
2022/06/14 06:28:40;;;;;;;;;;;;;;;26.06;100.00;99915.91;5074199;28;20194;-70
2022/06/14 06:31:11;;;;;;;;;;;;;;;25.88;100.00;99914.13;5074639;28;19912;-70
2022/06/14 06:33:40;;;;;;;;;;;;;;;25.98;100.00;99907.94;5074139;28;19912;-70
2022/06/14 06:36:18;;;;;;;;;;;;;;;26.29;100.00;99913.72;5056575;28;19912;-71
2022/06/14 06:38:54;;;;;;;;;;;;;;;26.04;100.00;99911.75;5074349;28;19908;-70
2022/06/14 06:44:33;;;;;;;;;;;;;;;26.63;100.00;99910.41;5073965;28;19915;-70
2022/06/14 06:47:01;;;;;;;;;;;;;;;26.75;100.00;99916.25;5074208;28;19923;-71
2022/06/14 06:49:31;;;;;;;;;;;;;;;26.80;100.00;99924.47;5074194;28;19923;-71
2022/06/14 06:52:01;;;;;;;;;;;;;;;27.24;100.00;99920.16;5056321;28;19923;-70
2022/06/14 06:54:26;;;;;;;;;;;;;;;27.47;100.00;99920.53;5073760;28;20318;-70
2022/06/14 06:56:55;;;;;;;;;;;;;;;26.99;100.00;99921.72;5073558;28;19919;-72
2022/06/14 06:59:21;;;;;;;;;;;;;;;27.47;100.00;99917.94;5074316;28;19942;-70
2022/06/14 07:01:48;;;;;;;;;;;;;;;27.63;100.00;99907.59;5055618;28;19912;-70
2022/06/14 07:04:19;;;;;;;;;;;;;;;27.73;100.00;99916.16;5074006;28;19919;-71
2022/06/14 07:06:44;;;;;;;;;;;;;;;27.76;100.00;99921.06;5073987;28;19916;-70
2022/06/14 07:09:17;;;;;;;;;;;;;;;28.32;100.00;99921.41;5073996;28;19986;-70
2022/06/14 07:11:47;;;;;;;;;;;;;;;27.92;100.00;99919.38;5073759;28;19916;-70
2022/06/14 07:14:18;;;;;;;;;;;;;;;28.17;100.00;99920.34;5073398;28;19912;-71
2022/06/14 07:16:49;;;;;;;;;;;;;;;27.81;100.00;99924.06;5073082;28;19916;-71
2022/06/14 07:19:24;;;;;;;;;;;;;;;28.19;100.00;99915.78;5073804;28;19914;-70
2022/06/14 07:21:54;;;;;;;;;;;;;;;28.38;100.00;99920.78;5073755;28;19912;-70
2022/06/14 07:24:26;;;;;;;;;;;;;;;27.79;100.00;99926.00;5073858;28;19919;-71
2022/06/14 07:27:01;;;;;;;;;;;;;;;28.34;100.00;99916.00;5073716;28;19912;-71
2022/06/14 07:29:26;;;;;;;;;;;;;;;28.02;100.00;99927.13;5055240;28;19920;-71
2022/06/14 07:31:57;;;;;;;;;;;;;;;28.62;100.00;99925.31;5054871;28;19913;-70
2022/06/14 07:34:22;;;;;;;;;;;;;;;28.92;100.00;99920.28;5055497;28;19913;-70
2022/06/14 07:36:54;;;;;;;;;;;;;;;29.19;100.00;99923.63;5073392;28;19969;-70
2022/06/14 07:39:22;;;;;;;;;;;;;;;29.25;100.00;99922.97;5055065;28;19934;-70
2022/06/14 07:41:54;;;;;;;;;;;;;;;29.47;100.00;99920.53;5072820;28;19948;-71
2022/06/14 07:44:43;;;;;;;;;;;;;;;29.19;100.00;99928.88;5055069;28;20387;-70
2022/06/14 07:47:23;;;;;;;;;;;;;;;28.59;100.00;99928.22;5043642;28;19916;-71
2022/06/14 07:49:48;;;;;;;;;;;;;;;29.68;100.00;99930.50;5055161;28;19962;-71
2022/06/14 07:52:20;;;;;;;;;;;;;;;29.63;100.00;99925.72;5072821;28;19916;-71
2022/06/14 07:54:47;;;;;;;;;;;;;;;29.41;100.00;99925.59;5072793;28;20885;-70
2022/06/14 07:57:19;;;;;;;;;;;;;;;30.11;100.00;99932.72;5054931;28;19912;-70
2022/06/14 07:59:54;;;;;;;;;;;;;;;29.69;100.00;99924.28;5055001;28;19955;-71
2022/06/14 08:02:26;;;;;;;;;;;;;;;30.50;100.00;99927.53;5072823;28;19955;-71
2022/06/14 08:05:02;;;;;;;;;;;;;;;30.12;100.00;99923.88;5073057;28;19924;-72
2022/06/14 08:07:29;;;;;;;;;;;;;;;30.07;100.00;99926.16;5054445;28;20292;-71
2022/06/14 08:10:00;;;;;;;;;;;;;;;30.55;100.00;99926.00;5072318;28;19912;-71
2022/06/14 08:12:44;;;;;;;;;;;;;;;30.23;100.00;99920.06;5054432;28;19912;-70
2022/06/14 08:15:15;;;;;;;;;;;;;;;30.38;100.00;99916.59;5072297;28;19955;-70
2022/06/14 08:17:43;;;;;;;;;;;;;;;30.59;100.00;99929.94;5054623;28;19912;-70
2022/06/14 08:20:19;;;;;;;;;;;;;;;30.35;100.00;99924.78;5054443;28;19912;-70
2022/06/14 08:22:46;;;;;;;;;;;;;;;30.46;100.00;99926.22;5054131;28;19908;-70
2022/06/14 08:25:20;;;;;;;;;;;;;;;31.19;100.00;99927.44;5071824;28;19919;-70
2022/06/14 08:27:48;;;;;;;;;;;;;;;30.99;100.00;99933.34;5071855;28;20000;-71
2022/06/14 08:30:20;;;;;;;;;;;;;;;30.71;100.00;99930.34;5071894;28;19914;-70
2022/06/14 08:32:55;;;;;;;;;;;;;;;30.62;100.00;99929.56;5072231;28;19919;-70
2022/06/14 08:35:32;;;;;;;;;;;;;;;30.37;100.00;99914.94;5053936;28;19916;-70
2022/06/14 08:38:19;;;;;;;;;;;;;;;31.05;100.00;99924.75;5054404;28;19927;-71
2022/06/14 08:40:47;;;;;;;;;;;;;;;30.73;100.00;99929.19;5054034;28;19912;-69
2022/06/14 08:43:16;;;;;;;;;;;;;;;31.02;100.00;99928.53;5071012;28;20366;-69
2022/06/14 08:45:41;;;;;;;;;;;;;;;31.20;100.00;99936.94;5072301;28;19972;-69
2022/06/14 08:48:36;;;;;;;;;;;;;;;31.14;100.00;99928.97;5071304;28;20294;-69
2022/06/14 08:51:16;;;;;;;;;;;;;;;31.00;100.00;99933.16;5053572;28;19918;-68
2022/06/14 08:53:45;;;;;;;;;;;;;;;31.25;100.00;99933.81;5071565;28;19935;-70
2022/06/14 08:56:13;;;;;;;;;;;;;;;31.55;100.00;99935.56;5071708;28;19916;-71
2022/06/14 08:58:38;;;;;;;;;;;;;;;30.68;100.00;99934.13;5071434;28;19920;-71
2022/06/14 09:01:09;;;;;;;;;;;;;;;31.05;100.00;99927.38;5053068;28;19912;-71
2022/06/14 09:03:52;;;;;;;;;;;;;;;30.80;100.00;99935.38;5071951;28;19974;-71
2022/06/14 09:06:33;;;;;;;;;;;;;;;31.35;100.00;99929.13;5077526;28;19916;-73
2022/06/14 09:09:11;;;;;;;;;;;;;;;31.99;100.00;99923.28;5092324;28;19919;-73
2022/06/14 09:11:36;;;;;;;;;;;;;;;31.56;100.00;99926.66;5085701;28;19920;-76
2022/06/14 09:14:11;;;;;;;;;;;;;;;31.86;100.00;99925.72;5054745;28;19913;-76
2022/06/14 09:17:04;;;;;;;;;;;;;;;31.79;100.00;99924.81;5054715;28;19919;-76
2022/06/14 09:19:46;;;;;;;;;;;;;;;31.33;100.00;99923.22;5072846;28;19919;-75
2022/06/14 09:22:11;;;;;;;;;;;;;;;32.04;83.36;99915.69;5072393;28;19916;-75
2022/06/14 09:24:45;;;;;;;;;;;;;;;31.50;98.57;99908.97;5054484;28;20003;-75
2022/06/14 09:27:30;;;;;;;;;;;;;;;31.95;100.00;99910.69;5063732;28;19916;-74
2022/06/14 09:30:15;;;;;;;;;;;;;;;31.71;100.00;99903.84;5073853;28;19916;-74
2022/06/14 09:33:13;;;;;;;;;;;;;;;31.49;100.00;99912.59;5077490;28;19920;-75
2022/06/14 09:35:45;;;;;;;;;;;;;;;33.00;96.77;99907.53;5092109;28;20010;-76
2022/06/14 09:38:13;;;;;;;;;;;;;;;32.55;89.83;99902.53;5091984;28;20019;-75
2022/06/14 09:40:59;;;;;;;;;;;;;;;32.17;95.04;99894.78;5074617;28;19919;-76
2022/06/14 09:43:44;;;;;;;;;;;;;;;32.00;92.88;99895.16;5074098;28;19918;-75
2022/06/14 09:46:22;;;;;;;;;;;;;;;32.28;91.82;99886.44;5029655;28;19916;-76
2022/06/14 09:48:53;;;;;;;;;;;;;;;33.04;89.64;99885.84;5086409;28;19917;-71
2022/06/14 09:51:27;;;;;;;;;;;;;;;32.56;100.00;99878.69;5070872;28;19913;-72
2022/06/14 09:54:23;;;;;;;;;;;;;;;32.91;90.11;99890.16;5072898;28;19912;-72
2022/06/14 09:57:07;;;;;;;;;;;;;;;31.56;85.76;99887.22;5077417;28;20401;-71
2022/06/14 09:59:38;;;;;;;;;;;;;;;32.02;92.36;99880.81;5059700;28;19915;-72
2022/06/14 10:02:10;;;;;;;;;;;;;;;32.01;94.88;99879.19;5077186;28;20421;-72
2022/06/14 10:04:41;;;;;;;;;;;;;;;32.60;93.41;99879.94;5058476;28;19912;-72
2022/06/14 10:07:16;;;;;;;;;;;;;;;32.35;100.00;99883.84;5058995;28;19916;-76
2022/06/14 10:09:47;;;;;;;;;;;;;;;32.12;87.31;99876.09;5058402;28;20387;-72
2022/06/14 10:12:15;;;;;;;;;;;;;;;32.99;87.15;99871.63;5077167;28;19912;-72
2022/06/14 10:14:50;;;;;;;;;;;;;;;32.26;83.27;99872.63;5059276;28;19916;-72
2022/06/14 10:17:18;;;;;;;;;;;;;;;31.53;87.62;99875.25;5076789;28;19944;-72
2022/06/14 10:19:49;;;;;;;;;;;;;;;30.96;100.00;99865.38;5059255;28;19916;-72
2022/06/14 10:22:39;;;;;;;;;;;;;;;31.07;100.00;99868.41;5059340;28;19913;-72
2022/06/14 10:25:16;;;;;;;;;;;;;;;31.08;100.00;99859.53;5077439;28;19920;-71
2022/06/14 10:30:32;;;;;;;;;;;;;;;30.72;100.00;99845.34;5077370;28;19919;-73
2022/06/14 10:33:35;;;;;;;;;;;;;;;31.21;100.00;99841.34;5077503;28;19913;-73
2022/06/14 10:36:19;;;;;;;;;;;;;;;31.72;100.00;99826.56;5014793;28;19917;-72
2022/06/14 10:39:05;;;;;;;;;;;;;;;31.04;100.00;99831.16;5015081;28;19913;-72
2022/06/14 10:41:36;;;;;;;;;;;;;;;31.26;100.00;99827.66;5059502;28;19999;-73
2022/06/14 10:44:08;;;;;;;;;;;;;;;31.06;100.00;99843.13;5059312;28;19916;-72
2022/06/14 10:46:39;;;;;;;;;;;;;;;31.18;100.00;99844.31;5077525;28;19924;-71
2022/06/14 10:49:23;;;;;;;;;;;;;;;30.87;100.00;99842.78;5059729;28;20011;-71
2022/06/14 10:51:49;;;;;;;;;;;;;;;27.87;100.00;99861.50;5059070;28;19913;-71
2022/06/14 10:54:26;;;;;;;;;;;;;;;27.70;100.00;99858.94;5058939;28;20316;-71
2022/06/14 10:56:52;;;;;;;;;;;;;;;27.58;100.00;99855.78;5059172;28;19908;-72
2022/06/14 10:59:29;;;;;;;;;;;;;;;25.73;100.00;99859.88;5059362;28;20235;-71
2022/06/14 11:02:02;;;;;;;;;;;;;;;25.41;100.00;99874.22;5076568;28;19912;-72
2022/06/14 11:04:30;;;;;;;;;;;;;;;26.13;100.00;99890.06;5059108;28;19916;-71
2022/06/14 11:07:05;;;;;;;;;;;;;;;25.40;100.00;99885.56;5073983;28;20003;-70
2022/06/14 11:09:39;;;;;;;;;;;;;;;25.66;100.00;99889.22;5074006;28;19923;-71
2022/06/14 11:12:23;;;;;;;;;;;;;;;26.24;100.00;99900.31;5073864;28;19962;-70
2022/06/14 11:14:48;;;;;;;;;;;;;;;26.02;100.00;99898.88;5055699;28;20382;-70
2022/06/14 11:17:23;;;;;;;;;;;;;;;25.70;100.00;99896.63;5073832;28;19912;-70
2022/06/14 11:19:48;;;;;;;;;;;;;;;26.20;100.00;99883.31;5055498;28;19912;-70
2022/06/14 11:22:17;;;;;;;;;;;;;;;25.30;100.00;99885.56;5073651;28;19916;-71
2022/06/14 11:24:48;;;;;;;;;;;;;;;25.83;100.00;99875.47;5073557;28;20008;-75
2022/06/14 11:27:45;;;;;;;;;;;;;;;26.29;100.00;99885.88;5073471;28;20369;-72
2022/06/14 11:30:18;;;;;;;;;;;;;;;25.84;100.00;99886.72;5033400;28;19963;-70
2022/06/14 11:33:02;;;;;;;;;;;;;;;25.88;100.00;99890.69;5073282;28;20007;-75
2022/06/14 11:35:31;;;;;;;;;;;;;;;25.66;100.00;99884.03;5073297;28;19912;-70
2022/06/14 11:38:14;;;;;;;;;;;;;;;25.73;100.00;99883.31;5055184;28;20375;-70
2022/06/14 11:40:46;;;;;;;;;;;;;;;25.66;100.00;99887.47;5055539;28;19942;-70
2022/06/14 11:43:17;;;;;;;;;;;;;;;25.15;100.00;99906.94;5073504;28;19934;-70
2022/06/14 11:45:43;;;;;;;;;;;;;;;24.94;100.00;99896.66;5073116;28;19919;-70
2022/06/14 11:48:17;;;;;;;;;;;;;;;25.41;100.00;99900.25;5055494;28;20369;-70
2022/06/14 11:50:45;;;;;;;;;;;;;;;25.10;100.00;99904.75;5055103;28;19912;-70
2022/06/14 11:53:23;;;;;;;;;;;;;;;25.73;100.00;99916.38;5073251;28;19917;-70
2022/06/14 11:55:53;;;;;;;;;;;;;;;24.97;100.00;99918.97;5055018;28;20014;-70
2022/06/14 11:58:37;;;;;;;;;;;;;;;24.94;100.00;99907.06;5072867;28;19975;-69
2022/06/14 12:01:06;;;;;;;;;;;;;;;25.56;100.00;99910.09;5072902;28;19909;-69
2022/06/14 12:03:44;;;;;;;;;;;;;;;25.96;100.00;99919.47;5072953;28;20449;-69
2022/06/14 12:06:09;;;;;;;;;;;;;;;26.08;100.00;99918.34;5072623;28;19918;-70
2022/06/14 12:08:48;;;;;;;;;;;;;;;25.62;100.00;99916.53;5054461;28;19913;-69
2022/06/14 12:11:13;;;;;;;;;;;;;;;25.91;100.00;99921.69;5054791;28;19981;-70
2022/06/14 12:13:44;;;;;;;;;;;;;;;25.91;100.00;99932.09;5072533;28;20371;-70
2022/06/14 12:16:39;;;;;;;;;;;;;;;26.06;100.00;99928.94;5054481;28;20015;-69
2022/06/14 12:19:12;;;;;;;;;;;;;;;25.76;100.00;99929.13;5044780;28;20374;-69
2022/06/14 12:21:51;;;;;;;;;;;;;;;25.67;100.00;99935.97;5072416;28;19923;-70
2022/06/14 12:24:21;;;;;;;;;;;;;;;25.74;100.00;99933.66;5054597;28;19966;-70
2022/06/14 12:26:57;;;;;;;;;;;;;;;25.57;100.00;99935.16;5054494;28;19912;-70
2022/06/14 12:29:32;;;;;;;;;;;;;;;25.30;100.00;99940.22;5054281;28;20007;-70
2022/06/14 12:31:58;;;;;;;;;;;;;;;25.04;100.00;99935.72;5072185;28;20333;-69
2022/06/14 12:34:41;;;;;;;;;;;;;;;25.12;100.00;99935.81;5054439;28;19917;-69
2022/06/14 12:37:20;;;;;;;;;;;;;;;25.24;100.00;99934.75;5054480;28;19919;-70
2022/06/14 12:39:56;;;;;;;;;;;;;;;25.30;100.00;99931.59;5072443;28;19943;-70
2022/06/14 12:42:36;;;;;;;;;;;;;;;25.03;100.00;99932.28;5054246;28;19912;-71
2022/06/14 12:45:01;;;;;;;;;;;;;;;25.29;100.00;99930.78;5072095;28;19912;-70
2022/06/14 12:47:35;;;;;;;;;;;;;;;25.35;100.00;99922.44;5053769;28;20310;-70
2022/06/14 12:50:14;;;;;;;;;;;;;;;25.56;100.00;99919.69;5072229;28;19916;-70
2022/06/14 12:52:43;;;;;;;;;;;;;;;25.34;100.00;99928.59;5071725;28;19923;-70
2022/06/14 12:55:18;;;;;;;;;;;;;;;25.84;100.00;99928.41;5053823;28;19912;-71
2022/06/14 12:57:58;;;;;;;;;;;;;;;24.99;100.00;99938.72;5071775;28;19908;-70
2022/06/14 13:00:34;;;;;;;;;;;;;;;25.17;100.00;99950.09;5071952;28;19952;-70
2022/06/14 13:03:10;;;;;;;;;;;;;;;25.83;100.00;99947.63;5054150;28;19993;-70
2022/06/14 13:05:42;;;;;;;;;;;;;;;26.02;100.00;99955.38;5072154;28;19912;-70
2022/06/14 13:08:13;;;;;;;;;;;;;;;26.33;100.00;99962.84;5071374;28;20412;-69
2022/06/14 13:10:38;;;;;;;;;;;;;;;25.70;100.00;99966.16;5071363;28;19995;-70
2022/06/14 13:13:04;;;;;;;;;;;;;;;25.13;100.00;99955.72;5071281;28;20061;-70
2022/06/14 13:15:38;;;;;;;;;;;;;;;25.49;100.00;99940.25;5071087;28;19955;-70
2022/06/14 13:18:10;;;;;;;;;;;;;;;25.73;100.00;99939.84;5053774;28;19913;-70